Airfield :
LOGIN :

Register | Disclaimer

   EN    FR    IT 

 










Legend :    VFR   Marginal VFR   IFR   Intensive IFR   Very Intensive IFR
Visi :
Ceiling :
>= 8 km
>= 3000ft
5 to 8 km
1000 to 3000 ft
1500m to 5 km
500 to 1000 ft
800 to 1500m
200 to 500 ft
< 800m
< 200 ft
Symbols :   Thunderstorms  Fog  Heavy snow  Heavy precipitations  Wind > 20 kt
SIGMETs :     Misc.  Thunderstorms  Icing  Turbulence  Mountain Waves  Volcanic Ashes






- Airport Elevation : 412 ft
- IATA code : ORE


LFOJ - Orleans

CURRENT METAR :
  • 200100Z AUTO 05006KT 9999 ///TCU 12/11 Q1005

EXPIRED METARs :
  • 200030Z AUTO 08004KT 9999 -RA NSC 12/11 Q1005
  • 200000Z AUTO 04004KT 9999 -RA ///TCU 12/11 Q1005
  • 192330Z AUTO 07004KT 9999 -RADZ FEW003/// OVC058/// ///CB 12/12 Q1005
  • 192300Z AUTO 08005KT 9999 -RADZ NSC 12/12 Q1005
  • 192230Z AUTO 09005KT 9999 BKN002 OVC056 12/12 Q1006

TAF TAF LFOJ
Valid from the 19 at 09:00 until the 20 at 09:00 UTC


190800Z 1909/2009 23012KT 9999 SCT015 BKN025
TEMPO 1909/1914 4000 -RADZ SCT008 BKN012
PROB30
TEMPO 1914/1919 4900 -SHRA SCT016TCU
BECMG 1919/1921 07005KT 3500 DZRA BKN011
TEMPO 2003/2006 2000 DZRA OVC006



MET'MAP, your aeronautical weather chart ! - Copyright ORBIFLY December 2007 - Disclaimer

ORBIFLY MET'MAP TEAM :

Programming & Development : Alexandra Zaïnal
Concept & Development : Baudouin d'Aumeries
Co-Development & Prog : Marc-Olivier Méhu
Technical & hardware support : Manuel Goepfert

Contact : metmap@orbifly.com




SOURCES & CREDITS :

   NOAA